Time;durP1;ratioP1;P1;durP2;ratioP2;P2;SDS_P1;SDS_P2;PMS_P1;PMS_P2;Temp;Humidity;BMP_temperature;BMP_pressure;BME280_temperature;BME280_humidity;BME280_pressure;Samples;Min_cycle;Max_cycle;Signal;HPM_P1;HPM_P2
2022/05/15 00:01:13;;;;;;;16.33;4.82;;;16.90;89.00;;;;;;5000722;28;20038;-67
2022/05/15 00:03:40;;;;;;;10.90;4.68;;;16.90;89.20;;;;;;5001295;28;20030;-66
2022/05/15 00:06:06;;;;;;;12.35;4.95;;;16.90;89.40;;;;;;4993481;28;20038;-65
2022/05/15 00:08:35;;;;;;;12.13;4.65;;;16.90;89.50;;;;;;4996524;28;20030;-66
2022/05/15 00:11:03;;;;;;;13.90;4.88;;;16.80;89.60;;;;;;4994667;28;20113;-66
2022/05/15 00:13:29;;;;;;;18.35;5.10;;;16.80;89.60;;;;;;4995977;28;20030;-67
2022/05/15 00:15:55;;;;;;;13.70;4.75;;;16.80;89.60;;;;;;4996848;28;20027;-67
2022/05/15 00:18:24;;;;;;;15.40;5.30;;;16.80;89.50;;;;;;5006986;23;20042;-70
2022/05/15 00:20:51;;;;;;;16.30;4.27;;;16.80;89.50;;;;;;4975143;28;20041;-69
2022/05/15 00:23:19;;;;;;;14.63;5.25;;;16.80;89.40;;;;;;4992347;28;20273;-70
2022/05/15 00:25:46;;;;;;;13.40;4.47;;;16.80;89.40;;;;;;4992704;28;20065;-69
2022/05/15 00:28:13;;;;;;;14.73;4.60;;;16.80;89.40;;;;;;4991883;28;20081;-68
2022/05/15 00:30:40;;;;;;;12.55;4.45;;;16.80;89.30;;;;;;4992293;28;20037;-68
2022/05/15 00:33:07;;;;;;;14.05;5.00;;;16.70;89.30;;;;;;4992349;28;20129;-68
2022/05/15 00:35:35;;;;;;;15.40;5.13;;;16.70;89.20;;;;;;4990960;28;20031;-68
2022/05/15 00:38:06;;;;;;;14.23;4.88;;;16.70;89.20;;;;;;4990854;28;20026;-69
2022/05/15 00:40:34;;;;;;;13.45;5.00;;;16.80;89.30;;;;;;4990934;28;20038;-68
2022/05/15 00:43:01;;;;;;;12.55;4.35;;;16.70;89.20;;;;;;4992228;28;20031;-69
2022/05/15 00:45:27;;;;;;;17.13;4.80;;;16.70;89.20;;;;;;4990922;28;20038;-68
2022/05/15 00:47:53;;;;;;;16.05;4.85;;;16.70;89.20;;;;;;4991949;28;20518;-70
2022/05/15 00:50:24;;;;;;;14.18;4.68;;;16.70;89.20;;;;;;4991927;28;20034;-68
2022/05/15 00:53:00;;;;;;;14.82;5.00;;;16.70;89.20;;;;;;4992142;28;20526;-69
2022/05/15 00:55:35;;;;;;;12.75;4.35;;;16.70;89.20;;;;;;4992008;28;20034;-69
2022/05/15 00:58:06;;;;;;;14.65;4.75;;;16.70;89.30;;;;;;4992065;28;20133;-68
2022/05/15 01:00:34;;;;;;;12.80;4.32;;;16.60;89.40;;;;;;4991808;28;20053;-69
2022/05/15 01:03:09;;;;;;;13.70;5.15;;;16.60;89.40;;;;;;4991838;28;20026;-68
2022/05/15 01:05:40;;;;;;;14.18;4.85;;;16.70;89.50;;;;;;4991751;28;20086;-68
2022/05/15 01:08:08;;;;;;;13.07;4.72;;;16.60;89.50;;;;;;4974645;28;20035;-68
2022/05/15 01:10:38;;;;;;;16.15;6.07;;;16.60;89.60;;;;;;4990303;28;20032;-70
2022/05/15 01:13:04;;;;;;;14.57;4.47;;;16.60;89.60;;;;;;4990483;28;20030;-68
2022/05/15 01:15:31;;;;;;;12.65;4.82;;;16.60;89.70;;;;;;4990654;28;20035;-69
2022/05/15 01:18:00;;;;;;;16.98;4.80;;;16.50;89.60;;;;;;4990181;28;20396;-69
2022/05/15 01:20:30;;;;;;;14.55;4.97;;;16.50;89.60;;;;;;4990377;28;20558;-68
2022/05/15 01:22:58;;;;;;;16.67;4.38;;;16.50;89.60;;;;;;4990509;28;20041;-68
2022/05/15 01:25:27;;;;;;;17.00;4.75;;;16.50;89.60;;;;;;4990460;28;20394;-69
2022/05/15 01:28:07;;;;;;;17.60;4.60;;;16.50;89.50;;;;;;4990382;28;20026;-72
2022/05/15 01:30:39;;;;;;;18.58;5.10;;;16.50;89.40;;;;;;4974407;28;20038;-68
2022/05/15 01:33:06;;;;;;;13.27;4.60;;;16.50;89.50;;;;;;4990645;28;20033;-68
2022/05/15 01:35:32;;;;;;;14.27;5.05;;;16.50;89.60;;;;;;4990568;28;20057;-68
2022/05/15 01:38:01;;;;;;;15.52;4.57;;;16.50;89.60;;;;;;4991125;28;20038;-68
2022/05/15 01:40:28;;;;;;;13.88;4.28;;;16.50;89.70;;;;;;4994295;28;20487;-72
2022/05/15 01:42:54;;;;;;;14.40;4.93;;;16.40;89.70;;;;;;4994407;28;20038;-68
2022/05/15 01:45:20;;;;;;;15.45;4.63;;;16.40;89.80;;;;;;4994134;28;20031;-71
2022/05/15 01:47:46;;;;;;;14.00;5.05;;;16.40;90.00;;;;;;4994055;28;20395;-69
2022/05/15 01:50:14;;;;;;;14.52;4.88;;;16.40;90.00;;;;;;4994214;28;20169;-69
2022/05/15 01:52:41;;;;;;;16.65;4.70;;;16.40;90.00;;;;;;4994629;28;20031;-69
2022/05/15 01:55:07;;;;;;;17.77;5.72;;;16.40;90.00;;;;;;4994506;28;20030;-69
2022/05/15 01:57:34;;;;;;;16.08;4.65;;;16.40;90.00;;;;;;4994347;28;20496;-69
2022/05/15 02:00:00;;;;;;;14.43;5.18;;;16.40;90.10;;;;;;4994096;28;20448;-68
2022/05/15 02:02:26;;;;;;;17.20;6.05;;;16.40;90.10;;;;;;4994313;28;20121;-68
2022/05/15 02:04:52;;;;;;;14.25;4.95;;;16.30;90.20;;;;;;4977955;28;20104;-69
2022/05/15 02:07:18;;;;;;;16.15;5.20;;;16.30;90.20;;;;;;4993834;28;20053;-69
2022/05/15 02:09:44;;;;;;;16.85;5.35;;;16.30;90.50;;;;;;4993905;28;20030;-69
2022/05/15 02:12:11;;;;;;;15.05;4.75;;;16.30;90.40;;;;;;4995380;28;20033;-68
2022/05/15 02:14:37;;;;;;;13.30;4.95;;;16.30;90.40;;;;;;4993923;28;20026;-69
2022/05/15 02:17:04;;;;;;;19.23;5.90;;;16.20;90.40;;;;;;4993631;28;20030;-69
2022/05/15 02:19:30;;;;;;;13.77;5.05;;;16.20;90.50;;;;;;4995123;28;20398;-69
2022/05/15 02:21:56;;;;;;;15.65;5.05;;;16.20;90.50;;;;;;4995446;28;20027;-69
2022/05/15 02:24:21;;;;;;;15.68;5.88;;;16.20;90.60;;;;;;4995086;28;20089;-70
2022/05/15 02:26:47;;;;;;;18.15;5.35;;;16.20;90.60;;;;;;4993652;28;20034;-68
2022/05/15 02:29:14;;;;;;;19.23;5.35;;;16.20;90.70;;;;;;4993494;28;20031;-69
2022/05/15 02:31:40;;;;;;;14.23;5.07;;;16.10;90.80;;;;;;4993699;28;20034;-69
2022/05/15 02:34:06;;;;;;;15.18;4.80;;;16.10;90.90;;;;;;4993510;28;20399;-69
2022/05/15 02:36:33;;;;;;;16.58;5.70;;;16.00;91.00;;;;;;4993338;28;20030;-69
2022/05/15 02:38:59;;;;;;;16.73;5.85;;;16.00;91.10;;;;;;4994883;28;20040;-70
2022/05/15 02:41:26;;;;;;;14.55;5.63;;;15.90;91.20;;;;;;4993947;28;20045;-70
2022/05/15 02:43:52;;;;;;;13.10;5.18;;;15.80;91.40;;;;;;4993616;28;20038;-70
2022/05/15 02:46:19;;;;;;;14.40;4.82;;;15.80;91.60;;;;;;4994551;28;20034;-68
2022/05/15 02:51:30;;;;;;;16.05;5.30;;;15.70;91.70;;;;;;4992926;28;20034;-70
2022/05/15 02:53:56;;;;;;;14.90;5.07;;;15.60;91.90;;;;;;4994436;28;20399;-69
2022/05/15 02:56:28;;;;;;;12.98;4.90;;;15.60;92.00;;;;;;4993110;28;20038;-70
2022/05/15 02:58:53;;;;;;;12.55;5.13;;;15.50;92.00;;;;;;4992988;28;20034;-69
2022/05/15 03:01:20;;;;;;;17.17;6.22;;;15.50;92.10;;;;;;4994383;28;20402;-67
2022/05/15 03:03:46;;;;;;;16.58;5.38;;;15.50;92.30;;;;;;4993103;28;20037;-67
2022/05/15 03:06:12;;;;;;;12.48;5.07;;;15.40;92.30;;;;;;4993022;28;20034;-68
2022/05/15 03:08:42;;;;;;;17.30;5.95;;;15.40;92.40;;;;;;4992732;28;20034;-67
2022/05/15 03:11:08;;;;;;;16.80;6.45;;;15.30;92.50;;;;;;4994271;28;20030;-68
2022/05/15 03:13:35;;;;;;;16.38;5.70;;;15.30;92.70;;;;;;4992781;28;20030;-69
2022/05/15 03:16:03;;;;;;;19.10;6.55;;;15.20;92.80;;;;;;4993899;28;20485;-68
2022/05/15 03:18:29;;;;;;;18.58;6.63;;;15.10;93.10;;;;;;4992821;28;20036;-68
2022/05/15 03:20:55;;;;;;;20.20;7.18;;;15.10;93.20;;;;;;4993062;28;20117;-69
2022/05/15 03:23:21;;;;;;;17.95;6.20;;;15.10;93.30;;;;;;4994017;28;20041;-68
2022/05/15 03:25:47;;;;;;;16.75;6.10;;;15.00;93.40;;;;;;4993953;28;20034;-69
2022/05/15 03:28:14;;;;;;;15.65;5.85;;;15.10;93.50;;;;;;4993905;28;20499;-69
2022/05/15 03:30:42;;;;;;;15.98;6.28;;;15.10;93.60;;;;;;4993682;28;20037;-68
2022/05/15 03:33:09;;;;;;;17.75;6.38;;;15.10;93.60;;;;;;4993761;28;20041;-69
2022/05/15 03:35:39;;;;;;;17.65;6.57;;;15.10;93.60;;;;;;4993590;28;20030;-68
2022/05/15 03:38:07;;;;;;;19.50;7.35;;;15.10;93.60;;;;;;4993569;28;20112;-69
2022/05/15 03:40:34;;;;;;;17.70;7.20;;;15.10;93.70;;;;;;4993614;28;20026;-69
2022/05/15 03:43:00;;;;;;;16.85;6.57;;;15.00;93.80;;;;;;4992448;28;20124;-69
2022/05/15 03:45:26;;;;;;;16.92;7.05;;;15.00;93.90;;;;;;4992289;28;20498;-69
2022/05/15 03:47:54;;;;;;;18.20;6.63;;;15.00;93.90;;;;;;4993673;28;20023;-68
2022/05/15 03:50:24;;;;;;;17.65;7.13;;;15.00;94.00;;;;;;4993287;28;20027;-68
2022/05/15 03:52:50;;;;;;;21.45;6.47;;;15.00;94.00;;;;;;4993748;28;20030;-68
2022/05/15 03:55:16;;;;;;;18.42;6.80;;;15.00;94.10;;;;;;4992147;28;20037;-68
2022/05/15 03:57:43;;;;;;;17.13;7.15;;;15.00;94.20;;;;;;4991853;28;20069;-69
2022/05/15 04:00:14;;;;;;;15.55;7.15;;;15.00;94.30;;;;;;4993224;28;20054;-69
2022/05/15 04:02:41;;;;;;;16.55;6.60;;;14.90;94.30;;;;;;4992091;28;20030;-69
2022/05/15 04:05:10;;;;;;;16.48;7.13;;;14.90;94.40;;;;;;4992306;28;20125;-69
2022/05/15 04:07:44;;;;;;;18.58;6.80;;;14.90;94.60;;;;;;4991946;28;20034;-70
2022/05/15 04:10:11;;;;;;;15.02;7.28;;;14.80;94.70;;;;;;4993819;28;20438;-70
2022/05/15 04:12:37;;;;;;;17.05;6.80;;;14.90;94.70;;;;;;4992931;28;20037;-70
2022/05/15 04:15:03;;;;;;;16.52;7.18;;;14.90;94.70;;;;;;4992779;28;20446;-70
2022/05/15 04:17:29;;;;;;;12.82;6.15;;;14.80;94.80;;;;;;4992295;28;20050;-70
2022/05/15 04:19:55;;;;;;;15.65;6.72;;;14.90;94.80;;;;;;4992138;28;20054;-69
2022/05/15 04:22:21;;;;;;;12.30;6.50;;;14.90;95.00;;;;;;4976447;28;20077;-68
2022/05/15 04:24:47;;;;;;;13.95;6.88;;;14.80;95.20;;;;;;4992209;28;20058;-68
2022/05/15 04:27:13;;;;;;;17.60;6.68;;;14.80;95.50;;;;;;4991868;28;20426;-68
2022/05/15 04:29:39;;;;;;;13.93;6.18;;;14.90;95.20;;;;;;4992726;28;20026;-68
2022/05/15 04:32:06;;;;;;;18.90;7.28;;;14.80;95.30;;;;;;4991462;28;20038;-68
2022/05/15 04:34:32;;;;;;;18.02;6.75;;;14.80;95.50;;;;;;4991439;28;20034;-67
2022/05/15 04:36:57;;;;;;;16.35;6.25;;;14.80;95.50;;;;;;4992559;28;20026;-67
2022/05/15 04:39:23;;;;;;;17.92;6.50;;;14.80;95.50;;;;;;4992565;28;20109;-66
2022/05/15 04:41:49;;;;;;;21.00;6.45;;;14.80;95.50;;;;;;4992467;28;20046;-66
2022/05/15 04:44:15;;;;;;;16.95;6.63;;;14.80;95.70;;;;;;4992520;28;20423;-67
2022/05/15 04:46:41;;;;;;;15.27;6.55;;;14.80;95.70;;;;;;4992482;28;20072;-66
2022/05/15 04:49:07;;;;;;;16.38;6.53;;;14.80;95.90;;;;;;4991178;28;20035;-68
2022/05/15 04:51:33;;;;;;;15.70;6.90;;;14.80;95.80;;;;;;4992420;28;20142;-67
2022/05/15 04:53:59;;;;;;;17.83;6.63;;;14.80;95.90;;;;;;4992475;28;20121;-69
2022/05/15 04:56:26;;;;;;;18.77;7.07;;;14.80;95.90;;;;;;4991206;28;20041;-68
2022/05/15 04:58:52;;;;;;;17.58;6.57;;;14.90;96.10;;;;;;4992102;28;20030;-69
2022/05/15 05:01:18;;;;;;;18.33;7.63;;;14.90;96.10;;;;;;4992126;28;20031;-69
2022/05/15 05:03:45;;;;;;;18.55;7.47;;;14.90;96.20;;;;;;4992301;28;20026;-69
2022/05/15 05:06:14;;;;;;;14.27;6.57;;;14.90;96.30;;;;;;4992026;28;20041;-69
2022/05/15 05:08:40;;;;;;;15.23;6.55;;;14.90;96.40;;;;;;4992262;28;20038;-68
2022/05/15 05:11:05;;;;;;;17.95;7.40;;;14.90;96.40;;;;;;4992353;28;20509;-68
2022/05/15 05:13:31;;;;;;;16.30;6.95;;;15.00;96.40;;;;;;4991475;28;20125;-69
2022/05/15 05:15:57;;;;;;;17.17;7.55;;;15.00;96.40;;;;;;4992415;28;20097;-69
2022/05/15 05:18:23;;;;;;;19.17;7.38;;;15.00;96.40;;;;;;4992090;28;20053;-69
2022/05/15 05:20:49;;;;;;;15.82;7.38;;;15.10;96.40;;;;;;4992088;28;20054;-69
2022/05/15 05:23:15;;;;;;;17.30;6.78;;;15.10;96.40;;;;;;4992123;28;20026;-68
2022/05/15 05:25:41;;;;;;;12.90;7.13;;;15.10;96.30;;;;;;4992010;28;20026;-69
2022/05/15 05:28:08;;;;;;;17.65;7.30;;;15.20;96.20;;;;;;4991906;28;20030;-68
2022/05/15 05:30:35;;;;;;;17.27;7.80;;;15.30;95.90;;;;;;4992213;28;20030;-69
2022/05/15 05:33:01;;;;;;;14.80;7.70;;;15.30;95.90;;;;;;4992061;28;20026;-67
2022/05/15 05:35:28;;;;;;;15.02;7.82;;;15.40;95.90;;;;;;4991929;28;20426;-68
2022/05/15 05:37:54;;;;;;;17.58;7.60;;;15.40;95.90;;;;;;4992021;28;20038;-67
2022/05/15 05:40:21;;;;;;;18.08;7.20;;;15.40;96.00;;;;;;4991716;28;20084;-68
2022/05/15 05:42:47;;;;;;;15.80;6.90;;;15.40;95.90;;;;;;4992055;28;20113;-67
2022/05/15 05:45:13;;;;;;;13.48;6.68;;;15.50;96.00;;;;;;4992500;28;20061;-68
2022/05/15 05:47:39;;;;;;;14.60;6.50;;;15.50;96.00;;;;;;4991763;28;20026;-70
2022/05/15 05:50:08;;;;;;;15.02;6.80;;;15.60;96.00;;;;;;4991762;28;20067;-68
2022/05/15 05:52:35;;;;;;;;;;;15.60;95.90;;;;;;4992315;28;20030;-69
2022/05/15 05:55:01;;;;;;;17.90;7.85;;;15.60;95.80;;;;;;4992475;28;20019;-69
2022/05/15 05:57:27;;;;;;;15.88;7.78;;;15.70;95.70;;;;;;4992090;28;20031;-70
2022/05/15 05:59:53;;;;;;;13.68;6.78;;;15.70;95.70;;;;;;4992395;28;20047;-69
2022/05/15 06:02:19;;;;;;;22.85;7.50;;;15.70;95.60;;;;;;4975254;28;20038;-69
2022/05/15 06:04:46;;;;;;;16.25;7.65;;;15.80;95.60;;;;;;4992477;28;20090;-69
2022/05/15 06:07:16;;;;;;;16.15;7.15;;;15.90;95.70;;;;;;4992164;28;20066;-69
2022/05/15 06:09:44;;;;;;;16.25;7.28;;;15.90;95.70;;;;;;4992065;28;20057;-69
2022/05/15 06:12:12;;;;;;;16.38;7.07;;;15.90;95.70;;;;;;4991440;28;20490;-69
2022/05/15 06:14:38;;;;;;;21.48;7.47;;;16.00;95.70;;;;;;4992296;28;20103;-69
2022/05/15 06:17:05;;;;;;;14.98;7.13;;;16.00;95.70;;;;;;4992372;28;20070;-69
2022/05/15 06:19:32;;;;;;;14.60;7.18;;;16.10;95.80;;;;;;5005397;23;20053;-65
2022/05/15 06:21:58;;;;;;;15.13;6.38;;;16.10;95.80;;;;;;4991686;28;20030;-65
2022/05/15 06:24:27;;;;;;;17.58;7.95;;;16.20;95.80;;;;;;4991440;28;20038;-66
2022/05/15 06:26:54;;;;;;;13.25;6.45;;;16.20;95.80;;;;;;4994755;28;20471;-66
2022/05/15 06:29:21;;;;;;;15.65;6.97;;;16.30;95.80;;;;;;4994982;28;20030;-66
2022/05/15 06:31:47;;;;;;;16.05;6.10;;;16.30;95.50;;;;;;4995083;28;20038;-66
2022/05/15 06:34:14;;;;;;;17.70;6.78;;;16.30;95.30;;;;;;4995114;28;20038;-66
2022/05/15 06:36:41;;;;;;;13.75;5.70;;;16.40;95.10;;;;;;4996957;28;20475;-66
2022/05/15 06:39:07;;;;;;;13.55;6.10;;;16.40;94.80;;;;;;5001315;28;20038;-65
2022/05/15 06:41:33;;;;;;;13.43;5.60;;;16.40;94.50;;;;;;4994970;28;20018;-65
2022/05/15 06:44:00;;;;;;;10.18;5.47;;;16.50;94.30;;;;;;4994745;28;20430;-65
2022/05/15 06:46:27;;;;;;;13.10;5.05;;;16.50;94.30;;;;;;4994511;28;20030;-65
2022/05/15 06:48:53;;;;;;;12.60;6.03;;;16.50;94.40;;;;;;4994602;28;20124;-65
2022/05/15 06:51:20;;;;;;;14.35;6.35;;;16.60;94.40;;;;;;4994810;28;20121;-65
2022/05/15 06:53:48;;;;;;;11.98;5.78;;;16.60;94.70;;;;;;4994513;28;20157;-65
2022/05/15 06:59:00;;;;;;;14.95;6.97;;;16.70;94.80;;;;;;4994916;28;20424;-65
2022/05/15 07:01:26;;;;;;;13.20;6.25;;;16.80;94.90;;;;;;4994595;28;20038;-65
2022/05/15 07:03:52;;;;;;;13.07;6.25;;;16.80;94.90;;;;;;4994714;28;20444;-65
2022/05/15 07:06:18;;;;;;;15.07;7.53;;;16.90;94.90;;;;;;4994388;28;20383;-65
2022/05/15 07:08:44;;;;;;;12.45;7.00;;;16.90;95.10;;;;;;4994260;28;20041;-64
2022/05/15 07:11:11;;;;;;;13.48;6.85;;;16.90;95.00;;;;;;4998120;28;20037;-64
2022/05/15 07:13:37;;;;;;;18.75;7.50;;;17.00;95.10;;;;;;4996355;28;20030;-64
2022/05/15 07:16:03;;;;;;;12.82;6.07;;;17.00;95.10;;;;;;4998493;28;20023;-65
2022/05/15 07:18:29;;;;;;;12.13;6.30;;;17.10;95.10;;;;;;4997291;28;20444;-64
2022/05/15 07:20:55;;;;;;;12.65;6.18;;;17.10;95.10;;;;;;4995805;28;20439;-66
2022/05/15 07:23:22;;;;;;;12.65;6.10;;;17.20;95.00;;;;;;4995390;28;20033;-65
2022/05/15 07:25:49;;;;;;;10.00;5.53;;;17.20;94.90;;;;;;4995831;28;20463;-64
2022/05/15 07:28:16;;;;;;;10.57;5.60;;;17.30;94.90;;;;;;4993880;28;20035;-64
2022/05/15 07:30:42;;;;;;;11.73;6.43;;;17.30;95.10;;;;;;4994002;28;20540;-65
2022/05/15 07:33:09;;;;;;;11.68;6.38;;;17.40;94.90;;;;;;4993873;28;20114;-66
2022/05/15 07:35:35;;;;;;;11.38;6.00;;;17.40;94.90;;;;;;4993425;28;20026;-66
2022/05/15 07:38:01;;;;;;;10.60;5.72;;;17.50;94.90;;;;;;4999976;28;20049;-65
2022/05/15 07:40:27;;;;;;;13.82;6.03;;;17.50;94.70;;;;;;5000253;28;20023;-64
2022/05/15 07:42:53;;;;;;;14.77;6.53;;;17.60;94.70;;;;;;4994161;28;20373;-64
2022/05/15 07:45:20;;;;;;;13.32;6.40;;;17.60;94.50;;;;;;4993601;28;20037;-65
2022/05/15 07:47:46;;;;;;;11.98;5.50;;;17.70;94.40;;;;;;5004501;28;20030;-65
2022/05/15 07:50:13;;;;;;;12.60;5.18;;;17.70;94.30;;;;;;5003702;28;20030;-64
2022/05/15 07:52:39;;;;;;;10.82;5.57;;;17.80;94.20;;;;;;4995097;28;20026;-65
2022/05/15 07:55:06;;;;;;;14.95;5.93;;;17.80;93.70;;;;;;4993678;28;20026;-65
2022/05/15 07:57:36;;;;;;;13.75;5.97;;;17.90;93.60;;;;;;4992147;28;20026;-65
2022/05/15 08:00:05;;;;;;;11.07;5.32;;;18.00;93.60;;;;;;4993375;28;20487;-65
2022/05/15 08:02:38;;;;;;;12.35;5.07;;;18.00;93.50;;;;;;4993260;28;20573;-65
2022/05/15 08:08:02;;;;;;;13.73;5.47;;;18.00;93.10;;;;;;4996003;28;20081;-65
2022/05/15 08:10:39;;;;;;;15.05;5.20;;;18.10;91.80;;;;;;4993070;28;20037;-65
2022/05/15 08:13:06;;;;;;;9.27;3.92;;;18.20;91.30;;;;;;4997445;28;20040;-65
2022/05/15 08:15:33;;;;;;;8.85;3.90;;;18.20;91.10;;;;;;4995521;28;20034;-65
2022/05/15 08:23:37;;;;;;;9.88;3.50;;;18.30;90.70;;;;;;4993896;28;20030;-64
2022/05/15 08:26:06;;;;;;;11.35;3.42;;;18.30;89.10;;;;;;4997780;28;20090;-66
2022/05/15 08:28:33;;;;;;;;;;;18.30;85.90;;;;;;4994177;28;20065;-67
2022/05/15 08:31:06;;;;;;;9.35;3.15;;;18.40;84.00;;;;;;4992794;28;19910;-64
2022/05/15 08:33:33;;;;;;;8.40;2.65;;;18.40;83.10;;;;;;4992424;28;20057;-65
2022/05/15 08:35:59;;;;;;;8.43;2.50;;;18.40;81.50;;;;;;4992463;28;20037;-64
2022/05/15 08:38:25;;;;;;;10.18;3.45;;;18.50;82.50;;;;;;4994547;28;20089;-66
2022/05/15 08:41:03;;;;;;;11.52;3.03;;;18.40;84.20;;;;;;5001333;28;20090;-66
2022/05/15 08:43:38;;;;;;;6.53;2.27;;;18.40;83.70;;;;;;4993349;28;20145;-65
2022/05/15 08:46:34;;;;;;;7.13;2.80;;;18.50;82.10;;;;;;4992305;28;20634;-64
2022/05/15 08:49:29;;;;;;;6.78;2.30;;;18.50;82.20;;;;;;4969281;28;20058;-66
2022/05/15 08:52:09;;;;;;;8.98;2.50;;;18.50;82.10;;;;;;4992663;28;20049;-65
2022/05/15 08:54:41;;;;;;;7.82;2.75;;;18.60;81.50;;;;;;4992238;28;20497;-65
2022/05/15 08:57:18;;;;;;;12.40;3.45;;;18.60;82.40;;;;;;4991893;28;20372;-65
2022/05/15 09:00:12;;;;;;;7.95;2.60;;;18.60;79.60;;;;;;4993664;28;20037;-65
2022/05/15 09:02:41;;;;;;;8.20;2.47;;;18.70;80.00;;;;;;4990658;28;20030;-64
2022/05/15 09:05:07;;;;;;;5.65;2.45;;;18.70;80.40;;;;;;4992395;28;20220;-66
2022/05/15 09:07:57;;;;;;;7.15;2.20;;;18.70;80.70;;;;;;4993417;28;20030;-65
2022/05/15 09:10:37;;;;;;;5.55;2.30;;;18.70;80.50;;;;;;4992017;28;20079;-65
2022/05/15 09:13:16;;;;;;;8.30;2.85;;;18.70;78.70;;;;;;4991963;28;20644;-65
2022/05/15 09:15:57;;;;;;;7.63;3.28;;;18.80;79.10;;;;;;4991737;28;20034;-65
2022/05/15 09:18:23;;;;;;;9.38;2.80;;;18.90;79.00;;;;;;4990778;28;20034;-65
2022/05/15 09:21:08;;;;;;;5.82;2.47;;;18.90;78.80;;;;;;4991785;28;20057;-65
2022/05/15 09:23:45;;;;;;;7.15;2.53;;;19.00;78.60;;;;;;4995035;28;20030;-64
2022/05/15 09:26:15;;;;;;;8.10;3.38;;;19.00;78.40;;;;;;4994538;28;20034;-65
2022/05/15 09:28:45;;;;;;;7.53;2.63;;;19.00;78.20;;;;;;4991597;28;20034;-64
2022/05/15 09:31:34;;;;;;;5.88;2.38;;;19.00;78.20;;;;;;4991858;28;20034;-65
2022/05/15 09:34:07;;;;;;;7.85;3.75;;;19.00;77.70;;;;;;4997082;28;20113;-65
2022/05/15 09:36:36;;;;;;;6.97;3.65;;;19.00;77.00;;;;;;4999250;28;20141;-66
2022/05/15 09:39:08;;;;;;;;;;;19.10;78.10;;;;;;4993298;28;20250;-65
2022/05/15 09:44:33;;;;;;;9.75;3.42;;;19.20;73.10;;;;;;5001539;28;20104;-66
2022/05/15 09:47:20;;;;;;;8.55;2.85;;;19.30;73.70;;;;;;5001333;28;20038;-65
2022/05/15 09:49:47;;;;;;;8.38;2.58;;;19.40;74.90;;;;;;5000783;28;20030;-66
2022/05/15 09:52:34;;;;;;;8.05;2.78;;;19.30;75.20;;;;;;5000703;28;20403;-64
2022/05/15 09:55:22;;;;;;;6.63;2.58;;;19.40;72.20;;;;;;5000931;28;20041;-66
2022/05/15 09:57:59;;;;;;;11.27;3.33;;;19.40;73.30;;;;;;5001314;28;20037;-65
2022/05/15 10:00:29;;;;;;;8.00;2.40;;;19.50;74.10;;;;;;5005456;28;20094;-66
2022/05/15 10:03:03;;;;;;;6.40;2.08;;;19.50;73.30;;;;;;5009642;28;20030;-66
2022/05/15 10:05:34;;;;;;;7.07;2.35;;;19.50;72.70;;;;;;5009038;28;20039;-66
2022/05/15 10:08:05;;;;;;;6.15;2.33;;;19.50;73.50;;;;;;5008036;28;20034;-66
2022/05/15 10:10:34;;;;;;;8.85;2.80;;;19.50;74.60;;;;;;5008679;28;20061;-66
2022/05/15 10:13:14;;;;;;;5.97;2.15;;;19.50;75.30;;;;;;5008814;28;20034;-66
2022/05/15 10:15:44;;;;;;;10.02;2.97;;;19.50;74.90;;;;;;5008489;28;20510;-65
2022/05/15 10:18:17;;;;;;;6.07;2.60;;;19.40;75.20;;;;;;5006165;28;20053;-64
2022/05/15 10:20:46;;;;;;;6.35;2.60;;;19.40;75.30;;;;;;4990799;28;20034;-65
2022/05/15 10:23:16;;;;;;;6.10;2.72;;;19.40;74.80;;;;;;5008659;28;20172;-65
2022/05/15 10:25:48;;;;;;;9.85;2.78;;;19.50;74.30;;;;;;5007451;28;20026;-65
2022/05/15 10:28:23;;;;;;;7.07;2.60;;;19.50;73.00;;;;;;5001213;28;20045;-64
2022/05/15 10:31:03;;;;;;;7.30;2.95;;;19.50;74.40;;;;;;4994791;28;20037;-66
2022/05/15 10:33:36;;;;;;;6.65;2.78;;;19.50;74.20;;;;;;4994760;28;20303;-66
2022/05/15 10:36:26;;;;;;;6.57;2.65;;;19.50;72.20;;;;;;4994465;28;20022;-65
2022/05/15 10:39:14;;;;;;;7.78;2.75;;;19.60;72.00;;;;;;5004852;28;20026;-65
2022/05/15 10:41:45;;;;;;;7.88;2.88;;;19.60;72.70;;;;;;5007970;28;20033;-64
2022/05/15 10:44:43;;;;;;;9.05;3.60;;;19.50;74.10;;;;;;5008780;28;20033;-64
2022/05/15 10:47:14;;;;;;;5.82;2.50;;;19.50;73.80;;;;;;5008643;28;20050;-66
2022/05/15 10:50:04;;;;;;;7.47;2.72;;;19.70;73.90;;;;;;5009145;28;20110;-66
2022/05/15 10:52:41;;;;;;;9.48;3.03;;;19.70;74.10;;;;;;4996864;28;20034;-66
2022/05/15 10:58:17;;;;;;;9.48;3.30;;;20.00;73.70;;;;;;5006590;28;20041;-66
2022/05/15 11:00:55;;;;;;;7.78;3.10;;;20.00;72.90;;;;;;5007913;28;20030;-65
2022/05/15 11:03:33;;;;;;;11.40;5.43;;;20.10;71.90;;;;;;4997064;28;20034;-65
2022/05/15 11:06:11;;;;;;;13.67;6.30;;;20.10;74.50;;;;;;4995716;28;20026;-64
2022/05/15 11:08:46;;;;;;;8.88;3.35;;;20.00;75.50;;;;;;4996661;28;20288;-65
2022/05/15 11:11:31;;;;;;;6.72;3.42;;;20.10;73.70;;;;;;4995522;28;20480;-65
2022/05/15 11:14:09;;;;;;;9.85;3.63;;;20.10;73.60;;;;;;4997618;28;20047;-66
2022/05/15 11:16:41;;;;;;;6.65;2.58;;;20.20;74.60;;;;;;4992618;28;20061;-65
2022/05/15 11:19:28;;;;;;;5.63;1.85;;;20.20;71.40;;;;;;4995146;28;20030;-65
2022/05/15 11:22:12;;;;;;;7.47;2.60;;;20.20;71.70;;;;;;5008316;28;20030;-65
2022/05/15 11:25:04;;;;;;;4.25;2.10;;;20.30;70.30;;;;;;5005232;28;20073;-65
2022/05/15 11:27:53;;;;;;;4.82;2.20;;;20.30;70.80;;;;;;5003819;28;20030;-65
2022/05/15 11:30:39;;;;;;;7.03;2.47;;;20.20;71.40;;;;;;4993610;28;20031;-65
2022/05/15 11:33:32;;;;;;;5.90;2.70;;;20.20;70.40;;;;;;4993785;28;20045;-65
2022/05/15 11:36:14;;;;;;;5.65;2.30;;;20.30;70.00;;;;;;4993405;28;20120;-65
2022/05/15 11:38:59;;;;;;;5.65;2.15;;;20.50;70.60;;;;;;4993322;28;20022;-65
2022/05/15 11:41:34;;;;;;;7.57;2.65;;;20.40;71.80;;;;;;4994040;28;20022;-65
2022/05/15 11:44:07;;;;;;;4.45;1.80;;;20.40;72.80;;;;;;4993219;28;20492;-65
2022/05/15 11:46:46;;;;;;;8.68;2.80;;;20.40;73.20;;;;;;4993252;28;20038;-65
2022/05/15 11:49:29;;;;;;;7.40;3.00;;;20.30;72.50;;;;;;4993110;28;20034;-64
2022/05/15 11:52:12;;;;;;;8.38;2.90;;;20.40;70.30;;;;;;5000900;28;20499;-65
2022/05/15 11:54:47;;;;;;;5.85;2.45;;;20.40;71.40;;;;;;4992985;28;20030;-65
2022/05/15 11:57:34;;;;;;;7.03;2.53;;;20.30;71.70;;;;;;4993093;28;20486;-65
2022/05/15 12:00:04;;;;;;;4.10;1.90;;;20.30;72.30;;;;;;4997775;28;20026;-65
2022/05/15 12:02:30;;;;;;;7.35;2.38;;;20.20;72.10;;;;;;5003750;28;20027;-64
2022/05/15 12:05:09;;;;;;;6.38;2.35;;;20.20;69.80;;;;;;4997300;28;20038;-65
2022/05/15 12:07:56;;;;;;;;;;;20.30;68.90;;;;;;4995396;28;20030;-66
2022/05/15 12:10:34;;;;;;;4.95;1.90;;;20.30;68.20;;;;;;4994840;28;19917;-65
2022/05/15 12:13:12;;;;;;;5.20;2.20;;;20.40;65.90;;;;;;5001899;28;20038;-65
2022/05/15 12:15:45;;;;;;;9.45;2.95;;;20.40;67.50;;;;;;4992614;28;20038;-64
2022/05/15 12:21:07;;;;;;;5.07;2.60;;;20.60;70.10;;;;;;4984895;28;20051;-68
2022/05/15 12:23:37;;;;;;;7.75;3.10;;;20.60;70.80;;;;;;4971010;28;20030;-67
2022/05/15 12:26:18;;;;;;;7.72;2.95;;;20.80;69.20;;;;;;4973208;28;20038;-68
2022/05/15 12:28:59;;;;;;;7.43;2.63;;;21.00;67.30;;;;;;4973104;28;20454;-68
2022/05/15 12:31:41;;;;;;;5.80;2.53;;;21.00;68.40;;;;;;4971797;28;20030;-68
2022/05/15 12:34:26;;;;;;;6.47;2.13;;;21.00;70.90;;;;;;4972895;28;20031;-71
2022/05/15 12:36:59;;;;;;;6.13;2.30;;;21.00;70.90;;;;;;4972811;28;20027;-68
2022/05/15 12:39:29;;;;;;;6.45;2.60;;;21.10;70.10;;;;;;4972913;28;20037;-67
2022/05/15 12:42:00;;;;;;;6.00;2.30;;;21.20;69.60;;;;;;4972944;28;20475;-67
2022/05/15 12:44:38;;;;;;;6.22;2.20;;;21.20;69.60;;;;;;4973083;28;20522;-68
2022/05/15 12:47:09;;;;;;;8.50;2.90;;;21.20;69.30;;;;;;4972844;28;20484;-68
2022/05/15 12:49:45;;;;;;;5.35;2.50;;;21.30;69.90;;;;;;4972714;28;20030;-67
2022/05/15 12:52:27;;;;;;;6.30;2.40;;;21.40;70.10;;;;;;4972785;28;20354;-68
2022/05/15 12:55:10;;;;;;;7.15;2.45;;;21.30;71.90;;;;;;4972652;28;20042;-67
2022/05/15 12:57:46;;;;;;;5.95;2.53;;;21.20;72.10;;;;;;4972420;28;20027;-68
2022/05/15 13:00:15;;;;;;;4.70;2.28;;;21.10;72.40;;;;;;4972523;28;20027;-68
2022/05/15 13:02:41;;;;;;;6.90;2.30;;;21.20;71.10;;;;;;4972466;28;20073;-68
2022/05/15 13:05:22;;;;;;;6.05;2.10;;;21.10;71.20;;;;;;4972375;28;20031;-68
2022/05/15 13:08:00;;;;;;;6.32;2.00;;;21.10;70.90;;;;;;4972385;28;20035;-73
2022/05/15 13:10:27;;;;;;;11.32;2.58;;;21.20;70.50;;;;;;4972349;28;20038;-68
2022/05/15 13:13:03;;;;;;;6.40;2.58;;;21.20;70.80;;;;;;4971570;28;20435;-68
2022/05/15 13:15:31;;;;;;;7.07;2.72;;;21.20;70.20;;;;;;4972423;28;20444;-68
2022/05/15 13:18:04;;;;;;;6.85;2.60;;;21.30;70.80;;;;;;4972063;28;20081;-70
2022/05/15 13:20:31;;;;;;;6.32;2.40;;;21.40;71.40;;;;;;4970207;28;20066;-69